Time;durP1;ratioP1;P1;durP2;ratioP2;P2;SDS_P1;SDS_P2;PMS_P1;PMS_P2;Temp;Humidity;BMP_temperature;BMP_pressure;BME280_temperature;BME280_humidity;BME280_pressure;Samples;Min_cycle;Max_cycle;Signal;HPM_P1;HPM_P2
2022/03/25 00:01:24;;;;;;;7.55;6.43;;;19.90;37.20;;;;;;5106358;28;20076;-57
2022/03/25 00:03:50;;;;;;;10.85;6.53;;;19.90;37.20;;;;;;5088847;28;20020;-55
2022/03/25 00:06:17;;;;;;;10.07;7.20;;;19.90;37.30;;;;;;5088301;28;20020;-54
2022/03/25 00:08:43;;;;;;;7.95;7.10;;;19.90;37.30;;;;;;5105957;28;20012;-54
2022/03/25 00:11:08;;;;;;;8.32;6.47;;;19.90;37.40;;;;;;5106499;28;20054;-57
2022/03/25 00:13:35;;;;;;;7.57;6.63;;;19.90;38.00;;;;;;5106263;28;20107;-57
2022/03/25 00:16:02;;;;;;;8.13;6.80;;;19.80;37.40;;;;;;5104687;28;20546;-58
2022/03/25 00:18:28;;;;;;;8.98;7.15;;;19.80;37.40;;;;;;5105501;28;20095;-56
2022/03/25 00:20:55;;;;;;;8.18;6.55;;;19.80;37.40;;;;;;5104856;28;20398;-55
2022/03/25 00:23:21;;;;;;;7.45;6.70;;;19.90;37.50;;;;;;5104302;28;20019;-56
2022/03/25 00:25:48;;;;;;;9.13;7.47;;;19.80;37.40;;;;;;5086451;28;20020;-54
2022/03/25 00:28:14;;;;;;;8.65;6.53;;;19.80;37.40;;;;;;5104943;28;20032;-56
2022/03/25 00:30:40;;;;;;;9.43;7.72;;;19.80;37.50;;;;;;5104761;28;20040;-55
2022/03/25 00:33:06;;;;;;;8.90;7.43;;;19.80;37.50;;;;;;5105163;28;20012;-55
2022/03/25 00:35:32;;;;;;;10.50;7.25;;;19.80;37.50;;;;;;5086778;28;20059;-57
2022/03/25 00:37:58;;;;;;;8.68;6.65;;;19.80;37.50;;;;;;5103806;28;20024;-57
2022/03/25 00:40:24;;;;;;;9.63;7.22;;;19.80;37.60;;;;;;5103977;28;20067;-56
2022/03/25 00:42:51;;;;;;;9.50;6.47;;;19.80;37.60;;;;;;5104037;28;20015;-57
2022/03/25 00:45:17;;;;;;;8.77;7.25;;;19.80;37.50;;;;;;5085757;28;20023;-56
2022/03/25 00:47:43;;;;;;;9.35;6.70;;;19.80;37.60;;;;;;5085123;28;20012;-57
2022/03/25 00:50:09;;;;;;;9.63;7.53;;;19.80;37.60;;;;;;5102083;28;20004;-54
2022/03/25 00:52:35;;;;;;;7.68;6.72;;;19.80;37.60;;;;;;5101941;28;20025;-56
2022/03/25 00:55:02;;;;;;;10.25;6.93;;;19.80;37.60;;;;;;5102173;28;20012;-53
2022/03/25 00:57:28;;;;;;;10.00;6.97;;;19.80;37.60;;;;;;5103173;28;20028;-57
2022/03/25 00:59:54;;;;;;;9.43;7.55;;;19.80;37.70;;;;;;5103802;28;20024;-57
2022/03/25 01:02:20;;;;;;;9.88;7.30;;;19.80;37.70;;;;;;5105424;28;20020;-55
2022/03/25 01:04:47;;;;;;;10.40;7.80;;;19.70;37.70;;;;;;5104544;28;20028;-58
2022/03/25 01:07:13;;;;;;;10.00;7.43;;;19.70;37.70;;;;;;5085548;28;20035;-57
2022/03/25 01:09:42;;;;;;;8.65;7.20;;;19.70;37.70;;;;;;5103201;28;20012;-50
2022/03/25 01:12:09;;;;;;;9.13;7.13;;;19.70;37.70;;;;;;5102579;28;20013;-56
2022/03/25 01:14:35;;;;;;;9.57;7.85;;;19.70;37.80;;;;;;5099865;28;20085;-55
2022/03/25 01:17:02;;;;;;;10.38;8.25;;;19.70;37.70;;;;;;5081957;28;20012;-59
2022/03/25 01:19:27;;;;;;;12.00;7.68;;;19.70;37.70;;;;;;5081975;28;20593;-59
2022/03/25 01:21:55;;;;;;;9.93;7.68;;;19.70;37.80;;;;;;5099090;28;20031;-59
2022/03/25 01:24:23;;;;;;;10.02;7.95;;;19.70;37.80;;;;;;5099453;28;20019;-58
2022/03/25 01:26:49;;;;;;;12.23;8.30;;;19.70;37.80;;;;;;5098954;28;20008;-59
2022/03/25 01:29:16;;;;;;;9.32;7.80;;;19.70;37.80;;;;;;5080774;28;20028;-59
2022/03/25 01:31:42;;;;;;;10.15;7.90;;;19.70;37.80;;;;;;5097494;28;20100;-59
2022/03/25 01:34:08;;;;;;;8.88;7.72;;;19.70;37.90;;;;;;5098871;28;20032;-59
2022/03/25 01:36:34;;;;;;;12.43;7.88;;;19.70;37.80;;;;;;5079622;28;20013;-59
2022/03/25 01:39:02;;;;;;;9.15;7.57;;;19.70;37.80;;;;;;5098389;28;20066;-58
2022/03/25 01:41:28;;;;;;;10.35;8.30;;;19.70;37.90;;;;;;5098155;28;20398;-57
2022/03/25 01:43:56;;;;;;;11.70;8.02;;;19.70;37.90;;;;;;5081308;28;20445;-57
2022/03/25 01:46:22;;;;;;;10.30;7.93;;;19.70;37.90;;;;;;5099620;28;20009;-58
2022/03/25 01:48:49;;;;;;;11.80;8.75;;;19.70;37.90;;;;;;5100312;28;20027;-59
2022/03/25 01:51:19;;;;;;;8.95;7.93;;;19.70;38.00;;;;;;5100638;28;20458;-59
2022/03/25 01:53:47;;;;;;;11.60;7.38;;;19.70;38.00;;;;;;5101424;28;20027;-59
2022/03/25 01:56:15;;;;;;;11.90;9.18;;;19.60;37.90;;;;;;5101407;28;20087;-58
2022/03/25 01:58:41;;;;;;;9.40;7.15;;;19.70;38.00;;;;;;5101890;28;20039;-58
2022/03/25 02:01:07;;;;;;;8.90;7.47;;;19.60;38.00;;;;;;5099950;28;20363;-58
2022/03/25 02:03:33;;;;;;;12.38;8.20;;;19.60;38.00;;;;;;5100286;28;20107;-58
2022/03/25 02:05:59;;;;;;;11.45;7.97;;;19.60;38.10;;;;;;5098902;28;20073;-57
2022/03/25 02:08:25;;;;;;;10.07;8.00;;;19.60;38.10;;;;;;5078629;28;20020;-57
2022/03/25 02:10:51;;;;;;;10.82;8.05;;;19.60;38.10;;;;;;5062207;28;20008;-58
2022/03/25 02:13:16;;;;;;;10.43;8.18;;;19.60;38.10;;;;;;5097512;28;20080;-57
2022/03/25 02:15:44;;;;;;;11.25;8.40;;;19.60;38.10;;;;;;5097759;28;20016;-60
2022/03/25 02:18:20;;;;;;;11.98;8.32;;;19.60;38.10;;;;;;5096740;28;20016;-60
2022/03/25 02:20:47;;;;;;;9.45;7.78;;;19.60;38.10;;;;;;5096438;28;20046;-59
2022/03/25 02:23:13;;;;;;;11.10;8.05;;;19.60;38.20;;;;;;5096489;28;20016;-60
2022/03/25 02:25:40;;;;;;;12.52;8.35;;;19.60;38.20;;;;;;5097802;28;20012;-59
2022/03/25 02:28:06;;;;;;;12.65;8.60;;;19.60;38.20;;;;;;5079831;28;20043;-59
2022/03/25 02:30:33;;;;;;;9.23;7.88;;;19.60;38.20;;;;;;5079927;28;20517;-59
2022/03/25 02:33:01;;;;;;;10.35;8.68;;;19.60;38.30;;;;;;5099087;28;20024;-59
2022/03/25 02:35:49;;;;;;;10.50;8.38;;;19.60;38.30;;;;;;5097058;28;20024;-59
2022/03/25 02:38:20;;;;;;;9.77;8.05;;;19.50;38.20;;;;;;5097308;28;20712;-58
2022/03/25 02:40:52;;;;;;;10.45;8.00;;;19.50;38.30;;;;;;5097416;28;20028;-58
2022/03/25 02:43:18;;;;;;;9.60;7.90;;;19.50;38.30;;;;;;5097510;28;20020;-58
2022/03/25 02:45:44;;;;;;;9.50;7.90;;;19.60;38.40;;;;;;5097184;28;20018;-59
2022/03/25 02:48:11;;;;;;;10.40;8.38;;;19.50;38.40;;;;;;5096363;28;20470;-59
2022/03/25 02:50:37;;;;;;;10.77;8.20;;;19.50;38.30;;;;;;5097182;28;20023;-58
2022/03/25 02:53:03;;;;;;;11.95;8.68;;;19.50;38.40;;;;;;5079526;28;20024;-58
2022/03/25 02:55:28;;;;;;;12.38;8.93;;;19.50;38.40;;;;;;5079622;28;20065;-58
2022/03/25 02:57:54;;;;;;;13.32;8.63;;;19.50;38.40;;;;;;5062486;28;20016;-58
2022/03/25 03:00:21;;;;;;;11.00;8.45;;;19.50;38.40;;;;;;5097450;28;20050;-58
2022/03/25 03:02:47;;;;;;;12.00;9.10;;;19.50;38.40;;;;;;5097426;28;20024;-57
2022/03/25 03:05:14;;;;;;;10.43;8.55;;;19.50;38.50;;;;;;5096209;28;20019;-58
2022/03/25 03:07:40;;;;;;;12.15;8.93;;;19.50;38.50;;;;;;5097574;28;20008;-57
2022/03/25 03:10:06;;;;;;;10.85;8.15;;;19.50;38.50;;;;;;5061954;28;20024;-59
2022/03/25 03:12:32;;;;;;;9.73;8.10;;;19.50;38.50;;;;;;5095938;28;20016;-57
2022/03/25 03:15:01;;;;;;;10.07;8.45;;;19.50;38.60;;;;;;5061770;28;20028;-58
2022/03/25 03:17:27;;;;;;;9.43;8.40;;;19.50;38.60;;;;;;5095733;28;20064;-58
2022/03/25 03:19:54;;;;;;;12.65;7.70;;;19.50;38.60;;;;;;5076704;28;20043;-58
2022/03/25 03:22:20;;;;;;;10.90;8.45;;;19.50;38.70;;;;;;5078317;28;20380;-57
2022/03/25 03:24:46;;;;;;;10.73;8.68;;;19.50;38.70;;;;;;5098517;28;20020;-58
2022/03/25 03:27:12;;;;;;;11.02;8.27;;;19.50;38.70;;;;;;5099086;28;20044;-58
2022/03/25 03:29:39;;;;;;;10.18;8.75;;;19.50;38.70;;;;;;5080622;28;20016;-58
2022/03/25 03:32:05;;;;;;;10.85;8.45;;;19.40;38.70;;;;;;5080460;28;20047;-58
2022/03/25 03:34:31;;;;;;;9.45;8.48;;;19.40;38.70;;;;;;5099031;28;20103;-58
2022/03/25 03:36:57;;;;;;;10.50;8.55;;;19.40;38.80;;;;;;5101902;28;20021;-59
2022/03/25 03:39:24;;;;;;;9.75;8.68;;;19.40;38.80;;;;;;5105215;28;20053;-56
2022/03/25 03:41:50;;;;;;;11.00;9.18;;;19.40;38.70;;;;;;5100512;28;20098;-58
2022/03/25 03:44:18;;;;;;;9.85;8.20;;;19.40;38.80;;;;;;5099932;28;20065;-57
2022/03/25 03:46:43;;;;;;;10.13;8.98;;;19.40;38.80;;;;;;5099778;28;20004;-59
2022/03/25 03:49:10;;;;;;;9.40;8.40;;;19.40;38.80;;;;;;5081073;28;20023;-58
2022/03/25 03:51:36;;;;;;;11.80;9.10;;;19.40;38.90;;;;;;5080609;28;20035;-58
2022/03/25 03:54:05;;;;;;;11.43;8.65;;;19.40;38.90;;;;;;5098063;28;20514;-59
2022/03/25 03:56:30;;;;;;;13.50;9.27;;;19.40;38.90;;;;;;5098156;28;20016;-58
2022/03/25 03:58:57;;;;;;;12.35;9.02;;;19.40;38.90;;;;;;5096480;28;20029;-55
2022/03/25 04:01:23;;;;;;;10.63;9.10;;;19.40;38.90;;;;;;5096336;28;20024;-54
2022/03/25 04:03:49;;;;;;;10.60;8.27;;;19.40;38.90;;;;;;5096466;28;20013;-57
2022/03/25 04:06:14;;;;;;;12.90;8.48;;;19.40;38.90;;;;;;5097751;28;20047;-52
2022/03/25 04:08:40;;;;;;;13.70;9.07;;;19.40;39.00;;;;;;5078222;28;20474;-56
2022/03/25 04:11:07;;;;;;;12.82;9.05;;;19.40;39.00;;;;;;5096569;28;20047;-58
2022/03/25 04:13:32;;;;;;;11.15;8.75;;;19.40;39.00;;;;;;5099237;28;20016;-58
2022/03/25 04:15:59;;;;;;;11.13;9.35;;;19.40;39.00;;;;;;5080134;28;20024;-54
2022/03/25 04:18:24;;;;;;;10.60;9.05;;;19.40;39.00;;;;;;5078245;28;20436;-52
2022/03/25 04:20:50;;;;;;;13.88;9.52;;;19.40;39.00;;;;;;5080322;28;20050;-56
2022/03/25 04:23:16;;;;;;;11.05;8.88;;;19.30;39.00;;;;;;5097685;28;20017;-55
2022/03/25 04:25:43;;;;;;;10.50;9.07;;;19.30;39.00;;;;;;5096175;28;20008;-55
2022/03/25 04:28:09;;;;;;;10.50;9.07;;;19.30;39.00;;;;;;5095770;28;20008;-58
2022/03/25 04:30:36;;;;;;;10.85;8.27;;;19.40;39.10;;;;;;5096005;28;20059;-54
2022/03/25 04:33:02;;;;;;;9.93;8.93;;;19.30;39.00;;;;;;5095563;28;20069;-54
2022/03/25 04:35:28;;;;;;;10.35;9.00;;;19.30;39.10;;;;;;5095305;28;20043;-55
2022/03/25 04:37:54;;;;;;;11.18;8.93;;;19.30;39.10;;;;;;5096595;28;20087;-58
2022/03/25 04:40:21;;;;;;;11.52;8.70;;;19.30;39.10;;;;;;5096400;28;20016;-58
2022/03/25 04:42:47;;;;;;;10.05;8.98;;;19.30;39.10;;;;;;5096078;28;20049;-58
2022/03/25 04:45:14;;;;;;;12.13;9.70;;;19.30;39.10;;;;;;5096257;28;20087;-59
2022/03/25 04:47:40;;;;;;;10.15;8.43;;;19.30;39.20;;;;;;5077939;28;20019;-55
2022/03/25 04:50:06;;;;;;;9.73;8.73;;;19.30;39.20;;;;;;5096120;28;20051;-58
2022/03/25 04:52:32;;;;;;;10.38;9.02;;;19.30;39.20;;;;;;5095689;28;20020;-57
2022/03/25 04:54:58;;;;;;;10.23;8.90;;;19.30;39.20;;;;;;5078123;28;20027;-58
2022/03/25 04:57:25;;;;;;;10.48;8.57;;;19.30;39.20;;;;;;5096357;28;20023;-57
2022/03/25 04:59:51;;;;;;;10.43;8.95;;;19.30;39.20;;;;;;5096292;28;20099;-58
2022/03/25 05:02:17;;;;;;;9.52;8.50;;;19.20;39.20;;;;;;5079789;28;20504;-56
2022/03/25 05:04:43;;;;;;;10.63;9.40;;;19.20;39.20;;;;;;5078895;28;20020;-55
2022/03/25 05:07:18;;;;;;;10.65;8.88;;;19.20;39.20;;;;;;5060857;28;20039;-56
2022/03/25 05:09:44;;;;;;;10.68;8.68;;;19.20;39.30;;;;;;5077656;28;20032;-55
2022/03/25 05:12:11;;;;;;;9.82;8.82;;;19.20;39.30;;;;;;5077180;28;20082;-59
2022/03/25 05:14:37;;;;;;;11.70;9.20;;;19.20;39.30;;;;;;5094985;28;20027;-59
2022/03/25 05:17:03;;;;;;;11.93;8.88;;;19.30;39.30;;;;;;5095086;28;20020;-59
2022/03/25 05:19:30;;;;;;;9.95;8.95;;;19.20;39.20;;;;;;5094579;28;20016;-56
2022/03/25 05:21:56;;;;;;;11.45;8.68;;;19.20;39.30;;;;;;5076377;28;20028;-57
2022/03/25 05:24:22;;;;;;;10.45;8.63;;;19.30;39.40;;;;;;5094591;28;20091;-55
2022/03/25 05:26:48;;;;;;;12.10;8.98;;;19.20;39.30;;;;;;5095337;28;20059;-58
2022/03/25 05:29:15;;;;;;;11.73;9.18;;;19.20;39.40;;;;;;5096571;28;20091;-59
2022/03/25 05:31:41;;;;;;;11.45;9.48;;;19.20;39.50;;;;;;5078049;28;20056;-58
2022/03/25 05:34:06;;;;;;;10.20;9.05;;;19.20;39.50;;;;;;5095399;28;20049;-59
2022/03/25 05:36:33;;;;;;;10.30;9.30;;;19.20;39.40;;;;;;5077852;28;20024;-54
2022/03/25 05:38:59;;;;;;;10.38;8.90;;;19.20;39.50;;;;;;5094693;28;20012;-57
2022/03/25 05:41:26;;;;;;;11.15;8.75;;;19.20;39.50;;;;;;5095043;28;20039;-54
2022/03/25 05:43:51;;;;;;;9.65;8.63;;;19.20;39.50;;;;;;5095432;28;20081;-54
2022/03/25 05:46:17;;;;;;;11.05;8.70;;;19.20;39.50;;;;;;5076434;28;20373;-56
2022/03/25 05:48:43;;;;;;;10.40;9.30;;;19.20;39.50;;;;;;5075283;28;20016;-57
2022/03/25 05:51:12;;;;;;;11.55;9.15;;;19.20;39.50;;;;;;5097997;28;20023;-54
2022/03/25 05:53:38;;;;;;;10.90;9.10;;;19.10;40.10;;;;;;5101875;28;20474;-57
2022/03/25 05:56:05;;;;;;;10.18;8.77;;;19.20;39.50;;;;;;5095261;28;20077;-54
2022/03/25 05:58:40;;;;;;;13.48;8.80;;;19.20;39.50;;;;;;5095643;28;20088;-57
2022/03/25 06:01:07;;;;;;;15.80;9.55;;;19.20;39.50;;;;;;5094532;28;20080;-59
2022/03/25 06:03:33;;;;;;;12.85;9.70;;;19.20;39.50;;;;;;5095024;28;20032;-54
2022/03/25 06:06:00;;;;;;;11.27;8.65;;;19.10;39.50;;;;;;5060028;28;20024;-59
2022/03/25 06:08:26;;;;;;;10.00;8.55;;;19.20;39.50;;;;;;5077556;28;20039;-58
2022/03/25 06:10:52;;;;;;;9.85;8.80;;;19.20;39.50;;;;;;5095066;28;20031;-58
2022/03/25 06:13:19;;;;;;;9.65;8.50;;;19.20;39.50;;;;;;5059442;28;20024;-58
2022/03/25 06:15:45;;;;;;;10.55;8.88;;;19.10;39.50;;;;;;5100461;28;20107;-58
2022/03/25 06:18:10;;;;;;;11.70;9.25;;;19.20;39.60;;;;;;5086124;28;20019;-61
2022/03/25 06:20:37;;;;;;;13.45;9.85;;;19.20;39.60;;;;;;5100034;28;20032;-60
2022/03/25 06:23:02;;;;;;;9.82;8.80;;;19.20;39.60;;;;;;5099030;28;20107;-60
2022/03/25 06:25:28;;;;;;;11.85;9.00;;;19.20;39.60;;;;;;5098404;28;20024;-59
2022/03/25 06:27:54;;;;;;;11.07;8.90;;;19.10;39.60;;;;;;5098803;28;20450;-60
2022/03/25 06:30:24;;;;;;;11.07;9.55;;;19.10;39.60;;;;;;5098010;28;20067;-60
2022/03/25 06:32:50;;;;;;;13.60;9.35;;;19.10;39.60;;;;;;5097481;28;20370;-60
2022/03/25 06:35:16;;;;;;;10.00;8.85;;;19.20;39.60;;;;;;5097746;28;20076;-59
2022/03/25 06:37:42;;;;;;;12.27;10.40;;;19.10;39.60;;;;;;5097053;28;20040;-58
2022/03/25 06:40:09;;;;;;;13.00;9.35;;;19.10;39.60;;;;;;5096027;28;20082;-56
2022/03/25 06:42:35;;;;;;;9.05;8.15;;;19.10;39.60;;;;;;5076765;28;20074;-57
2022/03/25 06:45:02;;;;;;;11.75;9.05;;;19.20;39.60;;;;;;5095657;28;20020;-59
2022/03/25 06:47:29;;;;;;;11.52;9.10;;;19.10;39.60;;;;;;5096595;28;20016;-59
2022/03/25 06:49:56;;;;;;;11.13;9.50;;;19.10;39.60;;;;;;5098011;28;20016;-58
2022/03/25 06:52:23;;;;;;;11.02;9.73;;;19.10;39.60;;;;;;5080009;28;20024;-58
2022/03/25 06:54:51;;;;;;;10.73;8.30;;;19.10;39.60;;;;;;5063285;28;20032;-58
2022/03/25 06:57:17;;;;;;;10.07;9.05;;;19.10;39.60;;;;;;5095410;28;20027;-56
2022/03/25 06:59:44;;;;;;;9.15;8.15;;;19.10;39.60;;;;;;5081053;28;20107;-58
2022/03/25 07:02:10;;;;;;;11.05;9.63;;;19.10;39.50;;;;;;5063730;28;20026;-58
2022/03/25 07:04:37;;;;;;;10.63;9.23;;;19.10;39.60;;;;;;5064898;28;20080;-56
2022/03/25 07:07:05;;;;;;;10.57;9.15;;;19.10;39.50;;;;;;5099638;28;20022;-57
2022/03/25 07:09:31;;;;;;;9.68;8.68;;;19.10;39.60;;;;;;5081463;28;20012;-59
2022/03/25 07:11:57;;;;;;;10.32;8.88;;;19.20;39.60;;;;;;5080481;28;20478;-59
2022/03/25 07:14:23;;;;;;;10.02;8.55;;;19.10;39.60;;;;;;5099044;28;20039;-59
2022/03/25 07:16:49;;;;;;;13.93;9.38;;;19.10;39.60;;;;;;5099473;28;20083;-56
2022/03/25 07:19:15;;;;;;;10.30;8.38;;;19.10;39.60;;;;;;5063102;28;20489;-58
2022/03/25 07:21:41;;;;;;;10.20;8.80;;;19.10;39.60;;;;;;5096223;28;20035;-55
2022/03/25 07:24:07;;;;;;;15.18;9.02;;;19.10;39.60;;;;;;5096147;28;20024;-58
2022/03/25 07:26:35;;;;;;;27.33;11.10;;;19.20;39.80;;;;;;5078321;28;20019;-58
2022/03/25 07:29:01;;;;;;;27.92;10.85;;;19.40;42.30;;;;;;5095723;28;20027;-57
2022/03/25 07:31:28;;;;;;;29.73;10.48;;;19.70;43.20;;;;;;5077382;28;20048;-57
2022/03/25 07:33:57;;;;;;;25.98;10.45;;;20.00;43.60;;;;;;5078282;28;20490;-59
2022/03/25 07:36:23;;;;;;;15.07;10.43;;;20.20;44.30;;;;;;5096175;28;20054;-57
2022/03/25 07:38:50;;;;;;;26.13;10.13;;;20.40;45.00;;;;;;5077884;28;20066;-55
2022/03/25 07:41:16;;;;;;;29.85;13.68;;;20.50;45.30;;;;;;5095182;28;20466;-58
2022/03/25 07:43:42;;;;;;;29.50;14.77;;;20.50;45.10;;;;;;5096343;28;20004;-57
2022/03/25 07:46:08;;;;;;;29.63;17.00;;;20.50;44.90;;;;;;5096989;28;20089;-59
2022/03/25 07:48:34;;;;;;;34.58;19.50;;;20.40;44.60;;;;;;5096464;28;20025;-57
2022/03/25 07:50:59;;;;;;;41.30;19.05;;;20.40;44.60;;;;;;5077852;28;20024;-56
2022/03/25 07:53:25;;;;;;;35.92;18.38;;;20.40;45.40;;;;;;5097193;28;20016;-55
2022/03/25 07:55:52;;;;;;;43.53;18.73;;;20.50;45.60;;;;;;5098143;28;20019;-55
2022/03/25 07:58:21;;;;;;;52.65;18.45;;;20.60;46.20;;;;;;5098286;28;20072;-54
2022/03/25 08:00:47;;;;;;;37.13;17.55;;;20.70;46.90;;;;;;5096253;28;20446;-53
2022/03/25 08:03:13;;;;;;;33.13;18.02;;;20.80;47.40;;;;;;5078123;28;20019;-48
2022/03/25 08:05:40;;;;;;;37.90;16.48;;;21.00;47.60;;;;;;5096600;28;20009;-57
2022/03/25 08:08:07;;;;;;;28.75;17.05;;;21.10;48.10;;;;;;5095994;28;20047;-47
2022/03/25 08:10:33;;;;;;;40.70;15.95;;;21.20;48.50;;;;;;5095752;28;20019;-52
2022/03/25 08:12:59;;;;;;;38.25;15.93;;;21.20;49.00;;;;;;5059916;28;20016;-56
2022/03/25 08:15:29;;;;;;;46.65;16.88;;;21.40;49.70;;;;;;5077470;28;20083;-54
2022/03/25 08:17:58;;;;;;;48.75;19.08;;;21.30;49.30;;;;;;5094281;28;20015;-52
2022/03/25 08:20:36;;;;;;;46.10;20.15;;;21.30;47.50;;;;;;5094428;28;20393;-57
2022/03/25 08:23:02;;;;;;;48.70;23.98;;;21.20;46.30;;;;;;5094165;28;20323;-58
2022/03/25 08:28:16;;;;;;;47.67;23.60;;;20.90;43.50;;;;;;5094108;28;20088;-55
2022/03/25 08:30:43;;;;;;;50.03;25.20;;;20.80;41.90;;;;;;5093863;28;20086;-51
2022/03/25 08:33:09;;;;;;;41.33;26.58;;;20.70;41.50;;;;;;5093899;28;20016;-53
2022/03/25 08:35:35;;;;;;;48.47;26.83;;;20.70;40.00;;;;;;5094576;28;20592;-55
2022/03/25 08:38:01;;;;;;;44.63;27.05;;;20.60;39.70;;;;;;5093583;28;20107;-49
2022/03/25 08:40:28;;;;;;;43.42;25.10;;;20.50;40.70;;;;;;5094358;28;20196;-51
2022/03/25 08:42:56;;;;;;;40.95;26.33;;;20.50;39.80;;;;;;5094409;28;20024;-52
2022/03/25 08:45:22;;;;;;;42.42;25.33;;;20.50;39.70;;;;;;5075913;28;20042;-54
2022/03/25 08:47:48;;;;;;;36.65;25.30;;;20.50;39.70;;;;;;5094924;28;20024;-55
2022/03/25 08:50:15;;;;;;;46.75;25.55;;;20.50;39.60;;;;;;5076307;28;20490;-54
2022/03/25 08:52:42;;;;;;;39.30;25.52;;;20.50;39.40;;;;;;5094394;28;20026;-55
2022/03/25 08:55:09;;;;;;;42.55;24.67;;;20.60;39.20;;;;;;5094123;28;20012;-54
2022/03/25 08:57:35;;;;;;;42.65;25.50;;;20.60;39.10;;;;;;5093594;28;20048;-51
2022/03/25 09:00:02;;;;;;;39.60;24.13;;;20.60;38.90;;;;;;5075265;28;20030;-52
2022/03/25 09:02:28;;;;;;;38.63;25.35;;;20.70;38.90;;;;;;5094950;28;20066;-50
2022/03/25 09:04:55;;;;;;;39.85;26.40;;;20.70;38.80;;;;;;5078139;28;20020;-51
2022/03/25 09:07:21;;;;;;;41.03;25.00;;;20.60;38.50;;;;;;5096701;28;20017;-51
2022/03/25 09:09:47;;;;;;;40.17;24.85;;;20.60;38.70;;;;;;5077820;28;20016;-48
2022/03/25 09:12:14;;;;;;;46.97;24.27;;;20.50;38.80;;;;;;5096825;28;20020;-53
2022/03/25 09:14:40;;;;;;;34.15;22.85;;;20.50;38.90;;;;;;5097505;28;20016;-55
2022/03/25 09:17:07;;;;;;;35.03;22.05;;;20.30;39.00;;;;;;5077038;28;20103;-49
2022/03/25 09:19:33;;;;;;;36.28;21.40;;;20.30;39.20;;;;;;5078405;28;20012;-54
2022/03/25 09:21:59;;;;;;;28.45;21.67;;;20.30;39.20;;;;;;5077096;28;20070;-52
2022/03/25 09:24:26;;;;;;;43.00;22.60;;;20.40;39.10;;;;;;5077799;28;20023;-53
2022/03/25 09:26:51;;;;;;;43.80;21.90;;;20.40;38.80;;;;;;5095274;28;20016;-49
2022/03/25 09:29:18;;;;;;;42.05;23.17;;;20.40;38.50;;;;;;5094006;28;20012;-53
2022/03/25 09:31:43;;;;;;;51.45;22.98;;;20.40;38.10;;;;;;5116390;28;20047;-53
2022/03/25 09:36:56;;;;;;;55.83;23.25;;;20.40;37.90;;;;;;5116182;28;20482;-51
2022/03/25 09:39:22;;;;;;;51.45;24.05;;;20.50;37.50;;;;;;5114996;28;20106;-51
2022/03/25 09:41:49;;;;;;;45.10;21.42;;;20.50;37.50;;;;;;5097354;28;20162;-54
2022/03/25 09:44:16;;;;;;;39.08;20.65;;;20.50;37.30;;;;;;5097975;28;20031;-51
2022/03/25 09:46:42;;;;;;;79.38;23.67;;;20.50;37.30;;;;;;5097712;28;20118;-47
2022/03/25 09:49:09;;;;;;;50.05;21.50;;;20.50;37.10;;;;;;5115121;28;20012;-49
2022/03/25 09:51:35;;;;;;;46.90;21.13;;;20.50;36.70;;;;;;5097371;28;20023;-51
2022/03/25 09:54:01;;;;;;;40.78;19.77;;;20.60;36.60;;;;;;5114922;28;20022;-49
2022/03/25 09:56:27;;;;;;;33.55;20.02;;;20.60;36.50;;;;;;5097147;28;20079;-53
2022/03/25 09:58:53;;;;;;;40.78;18.23;;;20.70;36.40;;;;;;5099036;28;20047;-52
2022/03/25 10:01:20;;;;;;;32.80;17.30;;;20.70;36.30;;;;;;5097673;28;20028;-53
2022/03/25 10:03:45;;;;;;;29.90;16.48;;;20.60;36.00;;;;;;5117031;28;20014;-51
2022/03/25 10:06:12;;;;;;;29.45;15.82;;;20.70;35.80;;;;;;5117533;28;20366;-52
2022/03/25 10:08:38;;;;;;;40.40;15.82;;;20.70;35.70;;;;;;5114562;28;20008;-51
2022/03/25 10:11:27;;;;;;;34.85;15.30;;;20.70;35.40;;;;;;5096014;28;20020;-48
2022/03/25 10:14:14;;;;;;;44.47;15.30;;;20.80;35.60;;;;;;5113449;28;20020;-49
2022/03/25 10:16:40;;;;;;;42.80;14.82;;;20.90;35.30;;;;;;5113429;28;20145;-48
2022/03/25 10:19:08;;;;;;;32.50;14.85;;;21.10;35.40;;;;;;5113937;28;20016;-51
2022/03/25 10:21:49;;;;;;;37.50;14.50;;;21.20;35.10;;;;;;5113468;28;20509;-51
2022/03/25 10:24:18;;;;;;;;;;;21.20;35.20;;;;;;5095298;28;20122;-49
2022/03/25 10:26:45;;;;;;;28.02;14.88;;;21.30;35.20;;;;;;5112628;28;19899;-52
2022/03/25 10:29:24;;;;;;;35.42;15.85;;;21.30;35.30;;;;;;5095832;28;20008;-55
2022/03/25 10:32:09;;;;;;;49.03;15.02;;;21.30;34.90;;;;;;5113737;28;20024;-56
2022/03/25 10:34:36;;;;;;;69.05;15.77;;;21.30;35.10;;;;;;5113290;28;20025;-49
2022/03/25 10:37:03;;;;;;;49.45;14.82;;;21.30;35.40;;;;;;5112980;28;20096;-51
2022/03/25 10:39:29;;;;;;;42.83;14.98;;;21.30;35.40;;;;;;5112756;28;20023;-52
2022/03/25 10:42:04;;;;;;;48.67;15.30;;;21.30;35.40;;;;;;5112445;28;20035;-52
2022/03/25 10:44:37;;;;;;;34.90;15.23;;;21.40;35.50;;;;;;5112181;28;20022;-53
2022/03/25 10:47:24;;;;;;;46.45;16.23;;;21.00;34.40;;;;;;5094085;28;20395;-50
2022/03/25 10:49:50;;;;;;;30.60;15.63;;;21.10;34.10;;;;;;5112730;28;20024;-51
2022/03/25 10:52:27;;;;;;;184.77;29.05;;;21.10;34.10;;;;;;5112889;28;20026;-52
2022/03/25 10:55:22;;;;;;;47.08;17.45;;;21.20;33.90;;;;;;5112850;28;20466;-52
2022/03/25 10:57:56;;;;;;;58.95;17.08;;;21.20;34.20;;;;;;5095512;28;20509;-55
2022/03/25 11:00:23;;;;;;;44.22;16.27;;;21.30;34.90;;;;;;5115153;28;20008;-50
2022/03/25 11:02:49;;;;;;;56.00;17.65;;;21.30;34.80;;;;;;5097074;28;20036;-53
2022/03/25 11:05:15;;;;;;;47.53;16.70;;;21.20;34.70;;;;;;5113903;28;20011;-57
2022/03/25 11:07:46;;;;;;;63.60;17.02;;;21.10;34.60;;;;;;5079706;28;20026;-54
2022/03/25 11:10:15;;;;;;;42.03;15.18;;;21.00;34.80;;;;;;5096571;28;20016;-50
2022/03/25 11:12:47;;;;;;;49.83;15.38;;;20.90;34.90;;;;;;5117276;28;20080;-56
2022/03/25 11:15:20;;;;;;;49.53;15.00;;;20.80;35.10;;;;;;5097115;28;20072;-54
2022/03/25 11:17:46;;;;;;;40.55;14.35;;;20.80;35.20;;;;;;5114495;28;20028;-53
2022/03/25 11:20:16;;;;;;;41.33;14.00;;;20.70;35.30;;;;;;5118784;28;20033;-52
2022/03/25 11:22:48;;;;;;;42.83;13.75;;;20.70;35.40;;;;;;5099267;28;20099;-52
2022/03/25 11:25:15;;;;;;;27.73;13.88;;;20.60;35.40;;;;;;5117755;28;20018;-52
2022/03/25 11:27:41;;;;;;;37.83;14.07;;;20.60;35.50;;;;;;5097167;28;20012;-53
2022/03/25 11:30:14;;;;;;;43.17;13.07;;;20.60;35.60;;;;;;5079208;28;20038;-49
2022/03/25 11:32:56;;;;;;;27.95;13.68;;;20.60;35.40;;;;;;5097715;28;20032;-54
2022/03/25 11:35:24;;;;;;;32.13;15.20;;;20.40;33.90;;;;;;5113968;28;20420;-54
2022/03/25 11:38:10;;;;;;;28.23;15.85;;;20.30;33.50;;;;;;5113931;28;20065;-50
2022/03/25 11:40:44;;;;;;;30.35;16.60;;;20.20;32.60;;;;;;5114790;28;20020;-53
2022/03/25 11:43:40;;;;;;;33.58;17.00;;;20.10;30.60;;;;;;5115027;28;20065;-52
2022/03/25 11:46:07;;;;;;;30.35;17.52;;;19.90;29.90;;;;;;5087802;28;20108;-46
2022/03/25 11:48:34;;;;;;;38.75;16.50;;;19.80;30.00;;;;;;5117256;28;20523;-51
2022/03/25 11:51:00;;;;;;;38.95;16.40;;;19.90;30.80;;;;;;5116833;28;20072;-52
2022/03/25 11:53:28;;;;;;;42.17;16.25;;;20.20;31.90;;;;;;5117105;28;20107;-48
2022/03/25 11:56:01;;;;;;;32.53;15.35;;;20.40;32.00;;;;;;5116555;28;20091;-52
2022/03/25 11:58:28;;;;;;;34.03;16.40;;;20.70;32.40;;;;;;5116278;28;20075;-51
2022/03/25 12:01:03;;;;;;;35.83;15.70;;;20.70;31.80;;;;;;5098233;28;20160;-48
2022/03/25 12:03:58;;;;;;;34.78;15.82;;;20.70;31.70;;;;;;5116333;28;20019;-52
2022/03/25 12:06:28;;;;;;;27.95;16.38;;;20.40;30.20;;;;;;5084702;28;20028;-56
2022/03/25 12:08:57;;;;;;;30.20;17.25;;;20.20;29.70;;;;;;5118418;28;20043;-52
2022/03/25 12:11:51;;;;;;;26.00;16.35;;;20.10;28.60;;;;;;5119746;28;20015;-49
2022/03/25 12:14:20;;;;;;;27.15;16.33;;;20.00;28.50;;;;;;5119478;28;20075;-51
2022/03/25 12:16:49;;;;;;;37.90;16.52;;;20.00;29.20;;;;;;5101066;28;20039;-54
2022/03/25 12:19:26;;;;;;;28.25;15.02;;;19.90;29.20;;;;;;5119981;28;20044;-49
2022/03/25 12:21:53;;;;;;;24.35;13.65;;;20.00;29.00;;;;;;5119319;28;20028;-48
2022/03/25 12:24:19;;;;;;;24.52;14.35;;;19.90;27.70;;;;;;5118106;28;20045;-53
2022/03/25 12:26:45;;;;;;;33.08;14.38;;;19.70;28.20;;;;;;5100477;28;20038;-51
2022/03/25 12:29:11;;;;;;;22.85;13.60;;;19.90;28.00;;;;;;5099535;28;20030;-48
2022/03/25 12:31:37;;;;;;;29.25;13.52;;;19.80;29.10;;;;;;5099655;28;20370;-49
2022/03/25 12:34:05;;;;;;;30.45;13.30;;;19.90;28.60;;;;;;5117456;28;20087;-52
2022/03/25 12:36:43;;;;;;;38.83;13.38;;;20.10;28.70;;;;;;5116057;28;20024;-53
2022/03/25 12:39:13;;;;;;;32.05;12.18;;;20.20;27.70;;;;;;5114900;28;20491;-50
2022/03/25 12:41:39;;;;;;;25.55;12.60;;;19.90;27.70;;;;;;5115528;28;20047;-55
2022/03/25 12:44:05;;;;;;;26.15;12.65;;;20.00;28.60;;;;;;5098380;28;20087;-57